University of Texas, Texas
Current Conditions -  °F | °C
As of 5:51 AM on Saturday 20 Dec 2014 (Local Time) from KATT Reporting Station
Overcast Overcast  
Wind Chill: 49°   Ceiling: 1500
Heat Index: 49°   Visibility: 10mi
Dew Point: 44°   Wind: 3mph
Humidity: 83%   Direction: NA
Pressure: 30.2"   Gusts: NA
Location:  30.2843°N, 97.7442°W
Report Text: KATT 201151Z AUTO VRB03KT 10SM OVC015 09/07 A3020 RMK AO2 SLP226 70005 T00940067 10100 20094 53002
Loading
Personal Weather Stations






























Interactive Weather Map New forecast layout! Learn more

10-Day Weather Forecast

Advertisements
Track Severe Weather on mobile